Terminal Aerodrome Forecast
Issued by NWS

Home | Current Version | Previous Version | Text Only | Print | Product List | Glossary On
Versions: 1 2 3 4 5 6 7 8 9 10 11 12 13 14 15 16 17 18 19 20 21
000
FTUS43 KGRR 230552
TAFJXN
TAF
KJXN 230552Z 2306/2406 VRB03KT 1/4SM FG VV002
     FM231500 04005KT 1SM -RA BR OVC003
     FM240200 02005KT 1/2SM DZ FG OVC003=

USA.gov is the U.S. government's official web portal to all federal, state and local government web resources and services.